sensor_id;sensor_type;location;lat;lon;timestamp;pressure;altitude;pressure_sealevel;temperature
78669;BMP280;67984;45.118;20.724;2023-06-10T00:08:18;69752.28;;;-137.10
78669;BMP280;67984;45.118;20.724;2023-06-10T00:18:20;69752.28;;;-137.10
78669;BMP280;67984;45.118;20.724;2023-06-10T00:28:22;69752.28;;;-137.10
78669;BMP280;67984;45.118;20.724;2023-06-10T00:38:23;69752.28;;;-137.10
78669;BMP280;67984;45.118;20.724;2023-06-10T00:48:24;69752.28;;;-137.10
78669;BMP280;67984;45.118;20.724;2023-06-10T00:58:25;69752.28;;;-137.10
78669;BMP280;67984;45.118;20.724;2023-06-10T01:08:36;69752.28;;;-137.10
78669;BMP280;67984;45.118;20.724;2023-06-10T01:18:40;69752.28;;;-137.10
78669;BMP280;67984;45.118;20.724;2023-06-10T01:28:49;69752.28;;;-137.10
78669;BMP280;67984;45.118;20.724;2023-06-10T01:38:55;69752.28;;;-137.10
78669;BMP280;67984;45.118;20.724;2023-06-10T01:48:56;69752.28;;;-137.10
78669;BMP280;67984;45.118;20.724;2023-06-10T01:58:57;69752.28;;;-137.10
78669;BMP280;67984;45.118;20.724;2023-06-10T02:08:59;69752.28;;;-137.10
78669;BMP280;67984;45.118;20.724;2023-06-10T02:19:03;69752.28;;;-137.10
78669;BMP280;67984;45.118;20.724;2023-06-10T02:29:06;69752.28;;;-137.10
78669;BMP280;67984;45.118;20.724;2023-06-10T02:39:07;69752.28;;;-137.10
78669;BMP280;67984;45.118;20.724;2023-06-10T02:49:08;69752.28;;;-137.10
78669;BMP280;67984;45.118;20.724;2023-06-10T02:59:10;69752.28;;;-137.10
78669;BMP280;67984;45.118;20.724;2023-06-10T03:09:11;69752.28;;;-137.10
78669;BMP280;67984;45.118;20.724;2023-06-10T03:19:15;69752.28;;;-137.10
78669;BMP280;67984;45.118;20.724;2023-06-10T03:29:21;69752.28;;;-137.10
78669;BMP280;67984;45.118;20.724;2023-06-10T03:39:22;69752.28;;;-137.10
78669;BMP280;67984;45.118;20.724;2023-06-10T03:49:24;69752.28;;;-137.10
78669;BMP280;67984;45.118;20.724;2023-06-10T03:59:28;69752.28;;;-137.10
78669;BMP280;67984;45.118;20.724;2023-06-10T04:09:29;69752.28;;;-137.10
78669;BMP280;67984;45.118;20.724;2023-06-10T04:19:31;69752.28;;;-137.10
78669;BMP280;67984;45.118;20.724;2023-06-10T04:29:32;69752.28;;;-137.10
78669;BMP280;67984;45.118;20.724;2023-06-10T04:39:33;69752.28;;;-137.10
78669;BMP280;67984;45.118;20.724;2023-06-10T04:49:35;69752.28;;;-137.10
78669;BMP280;67984;45.118;20.724;2023-06-10T04:59:37;69752.28;;;-137.10
78669;BMP280;67984;45.118;20.724;2023-06-10T05:09:38;69752.28;;;-137.10
78669;BMP280;67984;45.118;20.724;2023-06-10T05:19:39;69752.28;;;-137.10
78669;BMP280;67984;45.118;20.724;2023-06-10T05:29:45;100076.63;;;22.58
78669;BMP280;67984;45.118;20.724;2023-06-10T05:39:46;100090.16;;;22.40
78669;BMP280;67984;45.118;20.724;2023-06-10T05:49:47;100108.78;;;21.83
78669;BMP280;67984;45.118;20.724;2023-06-10T05:59:50;100051.78;;;19.08
78669;BMP280;67984;45.118;20.724;2023-06-10T06:09:50;100040.56;;;18.78
78669;BMP280;67984;45.118;20.724;2023-06-10T06:19:51;100064.16;;;19.03
78669;BMP280;67984;45.118;20.724;2023-06-10T06:29:52;100070.78;;;19.07
78669;BMP280;67984;45.118;20.724;2023-06-10T06:39:53;100061.38;;;19.15
78669;BMP280;67984;45.118;20.724;2023-06-10T06:49:54;100058.03;;;19.50
78669;BMP280;67984;45.118;20.724;2023-06-10T06:59:55;100056.50;;;20.03
78669;BMP280;67984;45.118;20.724;2023-06-10T07:09:56;100066.06;;;20.50
78669;BMP280;67984;45.118;20.724;2023-06-10T07:19:57;100066.78;;;20.83
78669;BMP280;67984;45.118;20.724;2023-06-10T07:30:00;100073.06;;;21.69
78669;BMP280;67984;45.118;20.724;2023-06-10T07:40:03;100083.59;;;22.21
78669;BMP280;67984;45.118;20.724;2023-06-10T07:50:05;100069.66;;;22.46
78669;BMP280;67984;45.118;20.724;2023-06-10T08:00:08;100073.53;;;22.99
78669;BMP280;67984;45.118;20.724;2023-06-10T08:10:14;100062.34;;;23.40
78669;BMP280;67984;45.118;20.724;2023-06-10T08:20:15;100060.00;;;23.48
78669;BMP280;67984;45.118;20.724;2023-06-10T08:30:16;100053.81;;;23.36
78669;BMP280;67984;45.118;20.724;2023-06-10T08:40:18;100046.41;;;23.20
78669;BMP280;67984;45.118;20.724;2023-06-10T08:50:21;100039.72;;;23.30
78669;BMP280;67984;45.118;20.724;2023-06-10T09:00:22;100033.25;;;23.62
78669;BMP280;67984;45.118;20.724;2023-06-10T09:10:24;100018.75;;;24.04
78669;BMP280;67984;45.118;20.724;2023-06-10T09:20:26;100001.53;;;24.52
78669;BMP280;67984;45.118;20.724;2023-06-10T09:30:45;100004.38;;;25.45
78669;BMP280;67984;45.118;20.724;2023-06-10T09:40:51;99996.38;;;25.18
78669;BMP280;67984;45.118;20.724;2023-06-10T09:50:52;99991.47;;;25.54
78669;BMP280;67984;45.118;20.724;2023-06-10T10:00:53;99986.34;;;25.51
78669;BMP280;67984;45.118;20.724;2023-06-10T10:10:56;99982.94;;;25.77
78669;BMP280;67984;45.118;20.724;2023-06-10T10:21:01;99966.53;;;26.08
78669;BMP280;67984;45.118;20.724;2023-06-10T10:31:07;99953.94;;;26.49
78669;BMP280;67984;45.118;20.724;2023-06-10T10:41:14;99942.47;;;26.88
78669;BMP280;67984;45.118;20.724;2023-06-10T10:51:16;99953.47;;;27.14
78669;BMP280;67984;45.118;20.724;2023-06-10T11:01:19;99945.84;;;27.23
78669;BMP280;67984;45.118;20.724;2023-06-10T11:11:21;99940.66;;;27.02
78669;BMP280;67984;45.118;20.724;2023-06-10T11:21:25;99932.81;;;27.09
78669;BMP280;67984;45.118;20.724;2023-06-10T11:41:32;99920.50;;;26.95
78669;BMP280;67984;45.118;20.724;2023-06-10T11:51:35;99916.19;;;27.16
78669;BMP280;67984;45.118;20.724;2023-06-10T12:01:41;99927.66;;;27.11
78669;BMP280;67984;45.118;20.724;2023-06-10T12:11:43;99913.59;;;27.29
78669;BMP280;67984;45.118;20.724;2023-06-10T12:21:46;99911.47;;;26.98
78669;BMP280;67984;45.118;20.724;2023-06-10T12:32:03;99896.84;;;26.99
78669;BMP280;67984;45.118;20.724;2023-06-10T12:42:08;99897.34;;;26.98
78669;BMP280;67984;45.118;20.724;2023-06-10T12:52:10;99881.16;;;27.08
78669;BMP280;67984;45.118;20.724;2023-06-10T13:02:11;99870.41;;;26.85
78669;BMP280;67984;45.118;20.724;2023-06-10T13:12:13;99880.97;;;27.01
78669;BMP280;67984;45.118;20.724;2023-06-10T13:22:14;99870.41;;;27.08
78669;BMP280;67984;45.118;20.724;2023-06-10T13:32:15;99876.63;;;27.46
78669;BMP280;67984;45.118;20.724;2023-06-10T13:42:19;99865.44;;;27.42
78669;BMP280;67984;45.118;20.724;2023-06-10T13:52:20;99858.97;;;27.32
78669;BMP280;67984;45.118;20.724;2023-06-10T14:02:21;99856.47;;;27.39
78669;BMP280;67984;45.118;20.724;2023-06-10T14:12:22;99850.59;;;27.41
78669;BMP280;67984;45.118;20.724;2023-06-10T14:22:23;99849.50;;;27.31
78669;BMP280;67984;45.118;20.724;2023-06-10T14:32:24;99844.00;;;27.42
78669;BMP280;67984;45.118;20.724;2023-06-10T14:42:25;99839.81;;;28.01
78669;BMP280;67984;45.118;20.724;2023-06-10T14:52:25;99849.09;;;28.00
78669;BMP280;67984;45.118;20.724;2023-06-10T15:02:26;99859.09;;;27.45
78669;BMP280;67984;45.118;20.724;2023-06-10T15:12:27;99849.22;;;26.87
78669;BMP280;67984;45.118;20.724;2023-06-10T15:22:28;99855.66;;;26.44
78669;BMP280;67984;45.118;20.724;2023-06-10T15:32:29;99850.63;;;26.29
78669;BMP280;67984;45.118;20.724;2023-06-10T15:42:29;99870.97;;;26.03
78669;BMP280;67984;45.118;20.724;2023-06-10T15:52:30;99864.13;;;26.13
78669;BMP280;67984;45.118;20.724;2023-06-10T16:02:31;99883.63;;;26.43
78669;BMP280;67984;45.118;20.724;2023-06-10T16:12:31;99899.34;;;26.63
78669;BMP280;67984;45.118;20.724;2023-06-10T16:22:32;99903.84;;;26.44
78669;BMP280;67984;45.118;20.724;2023-06-10T16:32:33;99893.56;;;26.08
78669;BMP280;67984;45.118;20.724;2023-06-10T16:42:33;99898.56;;;25.82
78669;BMP280;67984;45.118;20.724;2023-06-10T16:52:34;99896.75;;;26.06
78669;BMP280;67984;45.118;20.724;2023-06-10T17:02:35;99892.09;;;29.65
78669;BMP280;67984;45.118;20.724;2023-06-10T17:12:35;99889.16;;;28.47
78669;BMP280;67984;45.118;20.724;2023-06-10T17:22:36;99890.72;;;28.37
78669;BMP280;67984;45.118;20.724;2023-06-10T17:32:38;99902.84;;;27.52
78669;BMP280;67984;45.118;20.724;2023-06-10T17:42:40;99905.44;;;26.23
78669;BMP280;67984;45.118;20.724;2023-06-10T17:52:41;99904.53;;;26.04
78669;BMP280;67984;45.118;20.724;2023-06-10T18:02:41;99903.81;;;25.09
78669;BMP280;67984;45.118;20.724;2023-06-10T18:12:42;99900.81;;;24.42
78669;BMP280;67984;45.118;20.724;2023-06-10T18:22:43;99920.97;;;23.91
78669;BMP280;67984;45.118;20.724;2023-06-10T18:32:44;99936.47;;;23.45
78669;BMP280;67984;45.118;20.724;2023-06-10T18:42:44;99952.59;;;23.11
78669;BMP280;67984;45.118;20.724;2023-06-10T18:52:45;99966.41;;;22.84
78669;BMP280;67984;45.118;20.724;2023-06-10T19:02:46;99987.88;;;22.61
78669;BMP280;67984;45.118;20.724;2023-06-10T19:12:47;99979.44;;;22.43
78669;BMP280;67984;45.118;20.724;2023-06-10T19:22:49;99979.88;;;22.21
78669;BMP280;67984;45.118;20.724;2023-06-10T19:32:49;99971.31;;;21.98
78669;BMP280;67984;45.118;20.724;2023-06-10T19:42:50;99976.59;;;21.78
78669;BMP280;67984;45.118;20.724;2023-06-10T19:52:51;99955.06;;;21.61
78669;BMP280;67984;45.118;20.724;2023-06-10T20:02:52;99944.28;;;21.51
78669;BMP280;67984;45.118;20.724;2023-06-10T20:12:53;99939.25;;;21.38
78669;BMP280;67984;45.118;20.724;2023-06-10T20:22:54;99946.00;;;21.25
78669;BMP280;67984;45.118;20.724;2023-06-10T20:32:55;99939.03;;;21.13
78669;BMP280;67984;45.118;20.724;2023-06-10T20:42:56;99942.84;;;20.98
78669;BMP280;67984;45.118;20.724;2023-06-10T20:52:57;99949.84;;;20.86
78669;BMP280;67984;45.118;20.724;2023-06-10T21:02:57;99943.00;;;20.80
78669;BMP280;67984;45.118;20.724;2023-06-10T21:12:58;99947.63;;;20.70
78669;BMP280;67984;45.118;20.724;2023-06-10T21:22:59;99952.91;;;20.56
78669;BMP280;67984;45.118;20.724;2023-06-10T21:32:59;99948.53;;;20.44
78669;BMP280;67984;45.118;20.724;2023-06-10T21:43:00;99955.56;;;20.33
78669;BMP280;67984;45.118;20.724;2023-06-10T21:53:01;99965.47;;;20.23
78669;BMP280;67984;45.118;20.724;2023-06-10T22:03:01;99953.41;;;20.13
78669;BMP280;67984;45.118;20.724;2023-06-10T22:13:02;99948.03;;;19.99
78669;BMP280;67984;45.118;20.724;2023-06-10T22:23:03;99946.13;;;19.91
78669;BMP280;67984;45.118;20.724;2023-06-10T22:33:03;99931.00;;;19.82
78669;BMP280;67984;45.118;20.724;2023-06-10T22:43:04;99936.34;;;19.73
78669;BMP280;67984;45.118;20.724;2023-06-10T22:53:05;99929.16;;;19.65
78669;BMP280;67984;45.118;20.724;2023-06-10T23:03:06;99918.91;;;19.49
78669;BMP280;67984;45.118;20.724;2023-06-10T23:13:06;99907.59;;;19.40
78669;BMP280;67984;45.118;20.724;2023-06-10T23:23:07;99903.50;;;19.30
78669;BMP280;67984;45.118;20.724;2023-06-10T23:33:09;99903.34;;;19.24
78669;BMP280;67984;45.118;20.724;2023-06-10T23:43:11;99898.53;;;19.14
78669;BMP280;67984;45.118;20.724;2023-06-10T23:53:13;99895.88;;;19.05
